KHEFKMQI

Guest
Details From KHEF - Manassas Rgnl
To KMQI - DARE CO RGNL
Flight Number -
Tags generated
Created
Modified
Stats Distance 189 nm / 351 km
Max Altitude 21,300 ft / 6,492 m
Waypoints 3
Social Downloads 0
Likes 0
Share VATSIM

Download

Looking for another format? Having issues loading an existing format? Contact us
Advertisement - Login to hide

Notes

Basic altitude profile: - Ascent Rate: 700ft/min - Ascent Speed: 85kts - Cruise Altitude: 800ft - Cruise Speed: 110kts - Descent Rate: 1000ft/min - Descent Speed: 135kts Options: - Use NATs: yes - Use PACOTS: yes - Use low airways: yes - Use high airways: yes

Route

KHEF HCM KMQI

ID Type Via Altitude Latitude Longitude Leg Dist Tot Dist Heading (true) Name
O KHEF APT - 0 ft / 0 m 38.72157˚ -77.51587˚ - 0 nm - Manassas Rgnl
HCM VOR - 21,300 ft / 6,492 m 37.44867˚ -76.71136˚ 85 nm 85 nm 153° / 154° HARCUM VORTAC
O KMQI APT - 0 ft / 0 m 35.91904˚ -75.69543˚ 104 nm 189 nm 152° / 152° DARE CO RGNL

Altitude Profile

Advertisement - Login to hide

Weather


0- 5 10 15 20 25 30 35+ Temperature / ° C

Clouds and Precipitation
Forecast for 2017-12-12 18:00 UTC. Updated an hour ago

Ground ~20,000 ft ~40,000 ft Winds

KHEF

Details ICAO KHEF
Name Manassas Rgnl
Region United States
Timezone America/New_York (UTC-5.0)
Stats Elevation 192 ft / 59 m (AMSL)
Location 38.721572° -77.515875°
Runways 2
Magnetic Variation 10.510° W

METAR

KHEF 121356Z 33004KT 10SM BKN070 04/00 A2962 RMK AO2 SLP040 T00390000 PNO $

Decode

TAF

Not found

Departure Runways

ID Width Length Bearing (true) Bearing (mag) Surface Threshold Offset Overrun Length
16L 98 ft / 30 m 5,706 ft / 1,739 m 150.71° 161.22° Asphalt 0 ft / 0 m 151 ft / 46 m
16R 98 ft / 30 m 3,706 ft / 1,130 m 150.70° 161.21° Asphalt 0 ft / 0 m 0 ft / 0 m
34L 98 ft / 30 m 3,706 ft / 1,130 m 330.70° 341.21° Asphalt 0 ft / 0 m 0 ft / 0 m
34R 98 ft / 30 m 5,706 ft / 1,739 m 330.72° 341.23° Asphalt 0 ft / 0 m 151 ft / 46 m

KMQI

Details ICAO KMQI
Name DARE CO RGNL
Region United States
Timezone America/New_York (UTC-5.0)
Stats Elevation 14 ft / 4 m (AMSL)
Location 35.919044° -75.695427°
Runways 2
Magnetic Variation 11.001° W

METAR

KMQI 121405Z AUTO 22014KT 10SM CLR 09/05 A2972 RMK AO2 T00900052

Decode

TAF

Not found

Destination Runways

ID Width Length Bearing (true) Bearing (mag) Surface Threshold Offset Overrun Length
05 100 ft / 30 m 4,303 ft / 1,312 m 37.92° 48.92° Asphalt 335 ft / 102 m 0 ft / 0 m
17 75 ft / 23 m 3,308 ft / 1,008 m 158.10° 169.10° Asphalt 300 ft / 91 m 0 ft / 0 m
23 100 ft / 30 m 4,303 ft / 1,312 m 217.93° 228.93° Asphalt 300 ft / 91 m 0 ft / 0 m
35 75 ft / 23 m 3,308 ft / 1,008 m 338.10° 349.10° Asphalt 1,000 ft / 305 m 0 ft / 0 m

Popular Alternatives